createdAt,value
2022-08-05T00:00:32.547Z,28.16
2022-08-05T00:03:15.622Z,28.15
2022-08-05T00:06:06.585Z,28.00
2022-08-05T00:08:41.846Z,27.90
2022-08-05T00:11:20.584Z,27.81
2022-08-05T00:14:01.187Z,27.71
2022-08-05T00:16:36.029Z,27.64
2022-08-05T00:19:12.088Z,27.57
2022-08-05T00:21:44.856Z,27.40
2022-08-05T00:24:19.179Z,27.37
2022-08-05T00:26:57.343Z,27.37
2022-08-05T00:29:37.813Z,27.51
2022-08-05T00:32:14.951Z,27.39
2022-08-05T00:35:03.982Z,27.50
2022-08-05T00:37:53.333Z,27.43
2022-08-05T00:40:29.454Z,27.40
2022-08-05T00:43:07.690Z,27.36
2022-08-05T00:45:43.704Z,27.37
2022-08-05T00:48:27.756Z,27.35
2022-08-05T00:51:50.789Z,27.38
2022-08-05T00:54:04.289Z,27.22
2022-08-05T00:56:35.907Z,27.21
2022-08-05T00:59:10.409Z,27.16
2022-08-05T01:01:50.842Z,27.10
2022-08-05T01:04:26.735Z,26.92
2022-08-05T01:07:05.109Z,26.81
2022-08-05T01:09:38.127Z,26.86
2022-08-05T01:12:18.789Z,26.80
2022-08-05T01:14:56.884Z,26.62
2022-08-05T01:17:40.264Z,26.20
2022-08-05T01:20:27.763Z,25.56
2022-08-05T01:23:22.901Z,24.90
2022-08-05T01:26:16.105Z,24.81
2022-08-05T01:28:55.605Z,25.18
2022-08-05T01:31:33.014Z,25.31
2022-08-05T01:34:26.701Z,24.53
2022-08-05T01:37:24.611Z,24.62
2022-08-05T01:40:01.304Z,24.50
2022-08-05T01:42:35.982Z,24.53
2022-08-05T01:45:12.037Z,24.21
2022-08-05T01:47:54.588Z,24.29
2022-08-05T01:50:37.091Z,24.08
2022-08-05T01:53:57.922Z,23.95
2022-08-05T01:56:12.975Z,24.27
2022-08-05T01:58:47.027Z,24.51
2022-08-05T02:01:24.614Z,24.03
2022-08-05T02:04:03.771Z,23.96
2022-08-05T02:06:38.306Z,24.10
2022-08-05T02:09:11.144Z,24.06
2022-08-05T02:11:52.653Z,23.94
2022-08-05T02:14:37.071Z,24.06
2022-08-05T02:18:28.245Z,23.90
2022-08-05T02:20:20.466Z,24.17
2022-08-05T02:23:03.335Z,24.11
2022-08-05T02:25:49.024Z,23.88
2022-08-05T02:28:32.967Z,24.10
2022-08-05T02:31:16.516Z,24.07
2022-08-05T02:33:58.372Z,24.26
2022-08-05T02:36:39.316Z,24.40
2022-08-05T02:39:12.344Z,23.95
2022-08-05T02:41:57.976Z,24.11
2022-08-05T02:44:37.194Z,23.90
2022-08-05T02:47:12.165Z,24.05
2022-08-05T02:49:49.621Z,23.96
2022-08-05T02:52:30.659Z,24.14
2022-08-05T02:55:05.209Z,24.36
2022-08-05T02:58:12.350Z,23.91
2022-08-05T03:00:41.984Z,23.80
2022-08-05T03:03:23.590Z,23.80
2022-08-05T03:06:55.815Z,24.04
2022-08-05T03:08:53.572Z,24.08
2022-08-05T03:11:53.215Z,24.08
2022-08-05T03:14:20.872Z,24.16
2022-08-05T03:16:53.528Z,24.45
2022-08-05T03:19:34.308Z,24.26
2022-08-05T03:22:16.669Z,23.86
2022-08-05T03:24:53.671Z,23.96
2022-08-05T03:27:29.808Z,24.31
2022-08-05T03:30:18.720Z,23.96
2022-08-05T03:32:53.842Z,24.00
2022-08-05T03:35:27.352Z,23.97
2022-08-05T03:38:03.512Z,24.09
2022-08-05T03:40:35.930Z,24.34
2022-08-05T03:43:58.531Z,24.48
2022-08-05T03:46:00.170Z,24.42
2022-08-05T03:48:35.233Z,24.45
2022-08-05T03:52:38.562Z,24.54
2022-08-05T03:55:50.265Z,24.69
2022-08-05T03:57:16.865Z,24.40
2022-08-05T03:59:57.024Z,24.52
2022-08-05T04:02:38.797Z,24.57
2022-08-05T04:05:18.201Z,24.30
2022-08-05T04:07:58.129Z,24.30
2022-08-05T04:10:37.936Z,24.65
2022-08-05T04:13:10.943Z,24.70
2022-08-05T04:16:03.362Z,24.69
2022-08-05T04:18:35.980Z,24.46
2022-08-05T04:21:10.952Z,24.30
2022-08-05T04:24:00.267Z,24.50
2022-08-05T04:26:38.882Z,24.51
2022-08-05T04:29:11.185Z,24.76
2022-08-05T04:31:43.183Z,24.26
2022-08-05T04:34:31.997Z,24.34
2022-08-05T04:37:06.361Z,24.60
2022-08-05T04:39:40.040Z,24.94
2022-08-05T04:42:15.233Z,24.59
2022-08-05T04:44:47.543Z,25.17
2022-08-05T04:47:20.428Z,24.45
2022-08-05T04:50:03.059Z,25.12
2022-08-05T04:52:43.549Z,25.03
2022-08-05T04:55:17.351Z,24.92
2022-08-05T04:58:13.513Z,25.49
2022-08-05T05:00:46.374Z,25.69
2022-08-05T05:03:22.762Z,25.90
2022-08-05T05:06:38.943Z,25.83
2022-08-05T05:08:50.130Z,25.90
2022-08-05T05:11:23.091Z,25.81
2022-08-05T05:14:16.884Z,25.89
2022-08-05T05:17:00.490Z,25.49
2022-08-05T05:19:36.986Z,25.57
2022-08-05T05:22:23.636Z,25.78
2022-08-05T05:25:00.231Z,25.82
2022-08-05T05:27:55.699Z,25.33
2022-08-05T05:30:33.412Z,25.19
2022-08-05T05:33:15.934Z,25.73
2022-08-05T05:35:49.904Z,25.32
2022-08-05T05:41:16.428Z,25.53
2022-08-05T05:43:58.400Z,25.52
2022-08-05T05:46:35.033Z,25.73
2022-08-05T05:49:22.504Z,25.41
2022-08-05T05:51:54.953Z,25.00
2022-08-05T05:54:49.772Z,25.08
2022-08-05T05:57:19.544Z,24.97
2022-08-05T05:59:52.445Z,24.94
2022-08-05T06:02:37.361Z,25.54
2022-08-05T06:05:16.785Z,24.97
2022-08-05T06:08:12.283Z,24.86
2022-08-05T06:10:52.587Z,25.06
2022-08-05T06:13:25.260Z,25.12
2022-08-05T06:16:30.495Z,24.62
2022-08-05T06:18:53.732Z,24.58
2022-08-05T06:21:37.000Z,24.33
2022-08-05T06:24:12.431Z,24.56
2022-08-05T06:26:51.270Z,25.02
2022-08-05T06:29:48.864Z,24.88
2022-08-05T06:32:25.343Z,24.58
2022-08-05T06:35:05.863Z,25.13
2022-08-05T06:37:57.342Z,25.23
2022-08-05T06:40:32.428Z,25.51
2022-08-05T06:43:05.372Z,25.41
2022-08-05T06:46:07.277Z,25.16
2022-08-05T06:48:56.279Z,24.72
2022-08-05T06:51:42.447Z,25.25
2022-08-05T06:54:19.086Z,25.35
2022-08-05T06:56:55.092Z,25.29
2022-08-05T06:59:48.507Z,25.64
2022-08-05T07:02:30.805Z,25.81
2022-08-05T07:05:03.251Z,25.62
2022-08-05T07:07:49.285Z,26.21
2022-08-05T07:10:32.375Z,26.51
2022-08-05T07:13:17.287Z,26.72
2022-08-05T07:17:56.597Z,26.57
2022-08-05T07:19:16.078Z,25.98
2022-08-05T07:22:08.075Z,26.70
2022-08-05T07:24:44.021Z,27.00
2022-08-05T07:27:58.694Z,27.71
2022-08-05T07:30:24.670Z,26.67
2022-08-05T07:33:05.499Z,25.97
2022-08-05T07:36:03.088Z,26.76
2022-08-05T07:38:43.561Z,25.87
2022-08-05T07:42:12.864Z,25.89
2022-08-05T07:44:19.405Z,25.44
2022-08-05T07:46:52.519Z,25.25
2022-08-05T07:49:26.719Z,25.51
2022-08-05T07:51:59.237Z,25.41
2022-08-05T07:54:41.374Z,24.89
2022-08-05T07:57:50.613Z,24.97
2022-08-05T08:00:29.850Z,25.47
2022-08-05T08:03:14.921Z,25.31
2022-08-05T08:05:58.625Z,25.15
2022-08-05T08:12:14.593Z,25.16
2022-08-05T08:14:53.321Z,24.67
2022-08-05T08:17:28.845Z,24.95
2022-08-05T08:20:21.888Z,25.20
2022-08-05T08:23:00.104Z,24.99
2022-08-05T08:26:00.146Z,24.88
2022-08-05T08:28:36.223Z,25.87
2022-08-05T08:31:22.177Z,26.18
2022-08-05T08:34:33.290Z,25.84
2022-08-05T08:37:28.157Z,25.84
2022-08-05T08:40:01.399Z,25.69
2022-08-05T08:42:52.588Z,25.71
2022-08-05T08:45:29.762Z,25.36
2022-08-05T08:48:23.921Z,25.24
2022-08-05T08:51:04.495Z,25.12
2022-08-05T08:53:54.744Z,25.10
2022-08-05T08:56:27.316Z,25.12
2022-08-05T08:59:01.175Z,24.66
2022-08-05T09:01:43.503Z,24.49
2022-08-05T09:04:31.182Z,24.41
2022-08-05T09:07:10.777Z,24.49
2022-08-05T09:09:54.441Z,24.17
2022-08-05T09:12:27.407Z,24.39
2022-08-05T09:15:05.698Z,24.54
2022-08-05T09:17:42.422Z,24.44
2022-08-05T09:20:36.354Z,24.99
2022-08-05T09:23:19.484Z,24.64
2022-08-05T09:26:01.503Z,25.16
2022-08-05T09:28:37.048Z,25.15
2022-08-05T09:31:22.151Z,25.48
2022-08-05T09:34:06.548Z,25.45
2022-08-05T09:36:54.350Z,25.71
2022-08-05T09:39:44.690Z,25.38
2022-08-05T09:42:23.323Z,25.46
2022-08-05T09:45:17.208Z,26.08
2022-08-05T09:47:55.930Z,25.84
2022-08-05T09:50:44.492Z,26.15
2022-08-05T09:53:22.862Z,25.76
2022-08-05T09:56:11.360Z,26.04
2022-08-05T09:58:58.744Z,25.69
2022-08-05T10:01:33.922Z,25.89
2022-08-05T10:04:10.519Z,25.78
2022-08-05T10:06:54.873Z,25.73
2022-08-05T10:09:45.468Z,25.57
2022-08-05T10:12:33.630Z,25.74
2022-08-05T10:15:28.464Z,25.54
2022-08-05T10:18:17.429Z,25.49
2022-08-05T10:20:51.723Z,25.47
2022-08-05T10:23:55.706Z,24.99
2022-08-05T10:26:24.160Z,24.98
2022-08-05T10:28:59.477Z,24.89
2022-08-05T10:32:53.683Z,24.74
2022-08-05T10:34:25.820Z,24.38
2022-08-05T10:37:03.007Z,24.57
2022-08-05T10:39:59.347Z,24.19
2022-08-05T10:42:38.671Z,24.34
2022-08-05T10:45:23.928Z,24.65
2022-08-05T10:48:57.124Z,24.74
2022-08-05T10:51:48.675Z,24.52
2022-08-05T10:54:56.083Z,24.71
2022-08-05T10:57:34.188Z,24.72
2022-08-05T11:00:32.663Z,25.19
2022-08-05T11:03:25.348Z,25.13
2022-08-05T11:06:15.406Z,24.97
2022-08-05T11:09:39.117Z,25.03
2022-08-05T11:12:50.802Z,25.00
2022-08-05T11:16:00.825Z,25.49
2022-08-05T11:18:38.445Z,25.86
2022-08-05T11:21:48.933Z,26.40
2022-08-05T11:24:30.860Z,26.41
2022-08-05T11:27:51.237Z,26.45
2022-08-05T11:30:28.593Z,26.52
2022-08-05T11:33:34.727Z,27.90
2022-08-05T11:36:34.679Z,26.75
2022-08-05T11:39:13.568Z,26.76
2022-08-05T11:42:02.437Z,27.13
2022-08-05T11:44:53.822Z,27.30
2022-08-05T11:47:49.963Z,26.94
2022-08-05T11:50:23.045Z,28.56
2022-08-05T11:52:58.687Z,29.30
2022-08-05T11:55:36.474Z,28.67
2022-08-05T11:58:12.027Z,28.18
2022-08-05T12:00:46.983Z,28.21
2022-08-05T12:03:31.613Z,27.50
2022-08-05T12:06:10.809Z,28.51
2022-08-05T12:08:51.053Z,28.15
2022-08-05T12:11:28.358Z,28.61
2022-08-05T12:14:13.395Z,28.51
2022-08-05T12:16:47.844Z,29.56
2022-08-05T12:20:25.692Z,29.02
2022-08-05T12:22:20.151Z,28.57
2022-08-05T12:24:56.426Z,29.39
2022-08-05T12:27:32.947Z,29.79
2022-08-05T12:30:08.623Z,29.69
2022-08-05T12:32:51.486Z,29.33
2022-08-05T12:35:37.250Z,29.53
2022-08-05T12:38:15.153Z,29.59
2022-08-05T12:40:47.645Z,30.07
2022-08-05T12:43:22.444Z,29.97
2022-08-05T12:45:57.066Z,29.53
2022-08-05T12:48:32.977Z,29.36
2022-08-05T12:52:12.686Z,29.82
2022-08-05T12:54:23.757Z,29.37
2022-08-05T12:57:01.305Z,29.63
2022-08-05T13:00:08.959Z,30.10
2022-08-05T13:02:30.552Z,29.67
2022-08-05T13:05:02.465Z,29.24
2022-08-05T13:10:36.124Z,28.96
2022-08-05T13:14:06.427Z,28.74
2022-08-05T13:16:20.102Z,29.29
2022-08-05T13:18:58.595Z,28.86
2022-08-05T13:21:38.171Z,28.67
2022-08-05T13:24:27.699Z,29.64
2022-08-05T13:27:17.219Z,29.00
2022-08-05T13:29:59.427Z,29.16
2022-08-05T13:32:50.289Z,29.54
2022-08-05T13:35:31.185Z,28.99
2022-08-05T13:38:05.087Z,29.09
2022-08-05T13:40:47.885Z,29.55
2022-08-05T13:43:45.304Z,28.69
2022-08-05T13:46:30.842Z,28.70
2022-08-05T13:49:11.811Z,28.74
2022-08-05T13:51:46.274Z,28.40
2022-08-05T13:54:25.067Z,28.65
2022-08-05T13:56:57.574Z,28.28
2022-08-05T13:59:31.923Z,28.24
2022-08-05T14:02:40.566Z,27.79
2022-08-05T14:06:26.396Z,28.72
2022-08-05T14:12:00.352Z,29.14
2022-08-05T14:14:42.759Z,29.56
2022-08-05T14:17:17.008Z,28.89
2022-08-05T14:19:55.166Z,28.77
2022-08-05T14:22:30.274Z,28.73
2022-08-05T14:25:06.191Z,28.83
2022-08-05T14:27:51.847Z,28.92
2022-08-05T14:30:28.150Z,28.49
2022-08-05T14:33:00.403Z,29.08
2022-08-05T14:35:36.333Z,28.64
2022-08-05T14:38:32.937Z,28.94
2022-08-05T14:41:06.479Z,28.84
2022-08-05T14:44:00.283Z,28.59
2022-08-05T14:46:36.364Z,29.09
2022-08-05T14:49:09.835Z,28.02
2022-08-05T14:51:43.425Z,28.04
2022-08-05T14:54:28.854Z,28.20
2022-08-05T14:57:05.268Z,28.26
2022-08-05T14:59:42.325Z,27.76
2022-08-05T15:02:17.869Z,28.29
2022-08-05T15:04:50.104Z,27.60
2022-08-05T15:08:06.059Z,27.01
2022-08-05T15:10:15.225Z,26.87
2022-08-05T15:13:00.278Z,26.98
2022-08-05T15:15:54.249Z,26.61
2022-08-05T15:18:31.544Z,26.57
2022-08-05T15:21:07.802Z,26.21
2022-08-05T15:23:40.776Z,26.84
2022-08-05T15:26:13.186Z,26.09
2022-08-05T15:28:45.965Z,26.24
2022-08-05T15:31:24.796Z,25.81
2022-08-05T15:34:31.429Z,25.93
2022-08-05T15:37:06.895Z,25.86
2022-08-05T15:41:04.708Z,25.56
2022-08-05T15:42:54.165Z,25.50
2022-08-05T15:45:38.934Z,25.12
2022-08-05T15:48:14.477Z,24.99
2022-08-05T15:50:51.129Z,25.13
2022-08-05T15:53:27.483Z,25.56
2022-08-05T15:56:14.245Z,25.35
2022-08-05T15:58:46.902Z,24.92
2022-08-05T16:01:20.466Z,25.04
2022-08-05T16:04:03.044Z,24.96
2022-08-05T16:06:38.884Z,24.84
2022-08-05T16:09:12.524Z,24.80
2022-08-05T16:11:52.634Z,24.75
2022-08-05T16:14:25.657Z,24.43
2022-08-05T16:16:58.407Z,24.68
2022-08-05T16:20:04.199Z,24.49
2022-08-05T16:22:27.781Z,24.61
2022-08-05T16:25:09.521Z,24.36
2022-08-05T16:28:01.002Z,24.32
2022-08-05T16:30:36.456Z,24.30
2022-08-05T16:33:08.996Z,24.36
2022-08-05T16:35:43.082Z,24.16
2022-08-05T16:38:25.192Z,24.25
2022-08-05T16:41:29.824Z,23.82
2022-08-05T16:43:56.556Z,23.41
2022-08-05T16:46:28.783Z,23.38
2022-08-05T16:49:01.544Z,22.99
2022-08-05T16:51:42.768Z,23.01
2022-08-05T16:54:31.825Z,22.89
2022-08-05T16:57:15.026Z,22.58
2022-08-05T17:00:03.086Z,22.53
2022-08-05T17:02:36.951Z,22.75
2022-08-05T17:05:11.831Z,22.63
2022-08-05T17:07:54.494Z,22.88
2022-08-05T17:10:30.821Z,22.73
2022-08-05T17:13:03.147Z,22.43
2022-08-05T17:15:48.794Z,22.10
2022-08-05T17:18:25.561Z,22.13
2022-08-05T17:20:58.378Z,21.82
2022-08-05T17:24:05.925Z,22.14
2022-08-05T17:26:25.908Z,22.35
2022-08-05T17:28:58.273Z,21.80
2022-08-05T17:31:56.943Z,21.12
2022-08-05T17:34:29.470Z,21.38
2022-08-05T17:37:04.629Z,20.68
2022-08-05T17:39:56.117Z,20.49
2022-08-05T17:42:35.909Z,20.56
2022-08-05T17:45:20.891Z,20.19
2022-08-05T17:51:21.531Z,20.11
2022-08-05T17:53:55.107Z,20.00
2022-08-05T17:56:28.459Z,20.02
2022-08-05T17:59:04.677Z,19.99
2022-08-05T18:01:49.627Z,19.84
2022-08-05T18:04:27.887Z,20.40
2022-08-05T18:07:03.747Z,19.95
2022-08-05T18:10:00.313Z,19.80
2022-08-05T18:12:32.317Z,20.07
2022-08-05T18:15:10.778Z,20.03
2022-08-05T18:17:59.135Z,19.79
2022-08-05T18:20:35.135Z,19.56
2022-08-05T18:23:12.040Z,19.59
2022-08-05T18:25:45.774Z,19.75
2022-08-05T18:28:18.101Z,19.69
2022-08-05T18:30:57.766Z,19.61
2022-08-05T18:33:43.189Z,19.44
2022-08-05T18:36:20.572Z,19.50
2022-08-05T18:39:00.870Z,19.83
2022-08-05T18:41:56.163Z,19.67
2022-08-05T18:44:32.985Z,19.26
2022-08-05T18:47:12.081Z,19.10
2022-08-05T18:50:00.263Z,19.27
2022-08-05T18:52:38.468Z,19.31
2022-08-05T18:55:14.333Z,19.08
2022-08-05T18:57:53.492Z,19.06
2022-08-05T19:00:29.503Z,18.86
2022-08-05T19:03:06.261Z,18.79
2022-08-05T19:06:13.250Z,18.99
2022-08-05T19:08:32.067Z,19.06
2022-08-05T19:11:07.298Z,19.07
2022-08-05T19:13:40.752Z,19.08
2022-08-05T19:16:25.281Z,18.61
2022-08-05T19:19:05.763Z,18.68
2022-08-05T19:21:38.157Z,18.35
2022-08-05T19:24:12.506Z,18.69
2022-08-05T19:26:55.175Z,18.46
2022-08-05T19:29:36.514Z,18.23
2022-08-05T19:32:11.343Z,18.36
2022-08-05T19:34:54.616Z,18.42
2022-08-05T19:37:47.392Z,18.40
2022-08-05T19:40:24.171Z,18.20
2022-08-05T19:43:00.924Z,18.36
2022-08-05T19:45:39.447Z,18.33
2022-08-05T19:48:28.570Z,18.24
2022-08-05T19:51:04.882Z,18.19
2022-08-05T19:54:04.831Z,18.11
2022-08-05T19:56:34.818Z,18.28
2022-08-05T19:59:59.332Z,18.34
2022-08-05T20:02:39.678Z,18.11
2022-08-05T20:05:16.455Z,18.08
2022-08-05T20:07:59.897Z,18.06
2022-08-05T20:10:43.376Z,18.09
2022-08-05T20:13:16.854Z,18.13
2022-08-05T20:15:56.155Z,18.13
2022-08-05T20:18:36.294Z,18.67
2022-08-05T20:21:12.588Z,18.51
2022-08-05T20:23:53.283Z,18.35
2022-08-05T20:26:28.026Z,18.17
2022-08-05T20:29:01.596Z,17.83
2022-08-05T20:31:42.208Z,17.85
2022-08-05T20:34:23.196Z,17.94
2022-08-05T20:39:55.639Z,17.95
2022-08-05T20:42:30.552Z,17.81
2022-08-05T20:45:05.267Z,17.68
2022-08-05T20:47:40.075Z,17.98
2022-08-05T20:50:14.147Z,17.70
2022-08-05T20:52:48.255Z,17.77
2022-08-05T20:55:56.219Z,17.93
2022-08-05T20:58:21.687Z,17.63
2022-08-05T21:00:56.857Z,17.75
2022-08-05T21:03:30.566Z,17.97
2022-08-05T21:06:27.908Z,17.76
2022-08-05T21:08:59.299Z,18.15
2022-08-05T21:12:10.757Z,17.69
2022-08-05T21:14:42.688Z,18.03
2022-08-05T21:17:15.809Z,17.69
2022-08-05T21:19:50.382Z,17.87
2022-08-05T21:22:23.999Z,17.79
2022-08-05T21:24:56.800Z,17.67
2022-08-05T21:27:38.811Z,17.96
2022-08-05T21:30:17.363Z,18.24
2022-08-05T21:32:49.562Z,17.97
2022-08-05T21:35:30.187Z,17.68
2022-08-05T21:38:14.811Z,17.83
2022-08-05T21:40:48.538Z,17.84
2022-08-05T21:43:24.498Z,18.40
2022-08-05T21:46:00.096Z,18.32
2022-08-05T21:48:32.674Z,18.00
2022-08-05T21:52:16.439Z,18.22
2022-08-05T21:54:03.588Z,17.77
2022-08-05T21:56:35.630Z,17.81
2022-08-05T21:59:22.467Z,17.51
2022-08-05T22:01:55.735Z,18.23
2022-08-05T22:04:28.015Z,18.28
2022-08-05T22:06:59.938Z,17.74
2022-08-05T22:09:45.809Z,17.76
2022-08-05T22:12:18.051Z,17.68
2022-08-05T22:15:01.347Z,17.92
2022-08-05T22:17:35.018Z,17.53
2022-08-05T22:20:21.307Z,17.37
2022-08-05T22:23:17.219Z,17.55
2022-08-05T22:26:11.385Z,17.80
2022-08-05T22:28:43.938Z,17.86
2022-08-05T22:31:20.629Z,17.81
2022-08-05T22:33:55.543Z,17.65
2022-08-05T22:36:29.156Z,17.68
2022-08-05T22:39:04.289Z,17.51
2022-08-05T22:42:10.738Z,17.69
2022-08-05T22:44:36.047Z,17.73
2022-08-05T22:47:11.894Z,17.99
2022-08-05T22:50:19.514Z,17.45
2022-08-05T22:52:38.069Z,17.53
2022-08-05T22:55:18.378Z,17.55
2022-08-05T22:57:52.125Z,17.23
2022-08-05T23:00:26.519Z,17.37
2022-08-05T23:03:04.183Z,17.09
2022-08-05T23:05:42.274Z,17.59
2022-08-05T23:08:52.360Z,17.30
2022-08-05T23:11:24.064Z,17.15
2022-08-05T23:13:56.472Z,17.21
2022-08-05T23:16:40.215Z,17.35
2022-08-05T23:19:41.809Z,16.92
2022-08-05T23:22:39.046Z,16.70
2022-08-05T23:25:12.453Z,16.71
2022-08-05T23:28:00.335Z,16.65
2022-08-05T23:30:32.944Z,16.64
2022-08-05T23:33:22.334Z,16.40
2022-08-05T23:36:01.614Z,16.45
2022-08-05T23:38:33.273Z,16.39
2022-08-05T23:41:09.223Z,16.39
2022-08-05T23:44:06.520Z,16.36
2022-08-05T23:46:32.655Z,16.45
2022-08-05T23:49:16.466Z,16.11
2022-08-05T23:52:09.262Z,16.45
2022-08-05T23:54:41.009Z,16.34
2022-08-05T23:57:12.991Z,16.30
